createdAt,value
2023-12-28T00:00:21.878Z,98067.73
2023-12-28T00:02:55.555Z,98072.05
2023-12-28T00:05:29.319Z,98084.89
2023-12-28T00:08:02.933Z,98083.17
2023-12-28T00:10:38.228Z,98089.15
2023-12-28T00:13:11.694Z,98085.78
2023-12-28T00:15:45.413Z,98097.63
2023-12-28T00:18:21.496Z,98101.94
2023-12-28T00:20:55.233Z,98100.33
2023-12-28T00:23:28.807Z,98101.14
2023-12-28T00:26:03.284Z,98109.62
2023-12-28T00:28:36.990Z,98107.06
2023-12-28T00:31:11.903Z,98101.08
2023-12-28T00:33:45.918Z,98093.46
2023-12-28T00:36:19.597Z,98106.30
2023-12-28T00:38:54.574Z,98096.13
2023-12-28T00:41:28.200Z,98090.14
2023-12-28T00:44:03.214Z,98094.38
2023-12-28T00:46:36.900Z,98102.18
2023-12-28T00:49:11.982Z,98109.96
2023-12-28T00:51:45.842Z,98118.44
2023-12-28T00:54:19.551Z,98121.76
2023-12-28T00:56:54.249Z,98123.41
2023-12-28T00:59:28.733Z,98127.63
2023-12-28T01:02:02.291Z,98124.21
2023-12-28T01:04:36.043Z,98121.61
2023-12-28T01:07:09.803Z,98121.61
2023-12-28T01:09:43.581Z,98125.91
2023-12-28T01:12:17.162Z,98124.16
2023-12-28T01:14:50.928Z,98123.36
2023-12-28T01:17:24.564Z,98136.20
2023-12-28T01:19:58.283Z,98135.31
2023-12-28T01:22:32.048Z,98144.73
2023-12-28T01:25:07.086Z,98142.13
2023-12-28T01:27:40.856Z,98145.48
2023-12-28T01:30:15.341Z,98154.06
2023-12-28T01:32:48.876Z,98148.86
2023-12-28T01:35:22.644Z,98153.22
2023-12-28T01:37:56.359Z,98148.94
2023-12-28T01:40:30.196Z,98137.86
2023-12-28T01:43:03.800Z,98144.62
2023-12-28T01:45:37.436Z,98160.89
2023-12-28T01:48:12.559Z,98160.89
2023-12-28T01:50:46.620Z,98161.03
2023-12-28T01:53:20.818Z,98161.14
2023-12-28T01:55:55.686Z,98165.45
2023-12-28T01:58:31.197Z,98156.02
2023-12-28T02:01:04.890Z,98154.35
2023-12-28T02:03:38.998Z,98160.22
2023-12-28T02:06:12.991Z,98178.19
2023-12-28T02:08:46.806Z,98162.89
2023-12-28T02:11:20.774Z,98168.11
2023-12-28T02:13:54.789Z,98161.27
2023-12-28T02:16:32.187Z,98172.31
2023-12-28T02:19:08.939Z,98184.22
2023-12-28T02:21:43.575Z,98188.48
2023-12-28T02:24:17.323Z,98186.73
2023-12-28T02:26:50.876Z,98183.25
2023-12-28T02:29:24.456Z,98184.97
2023-12-28T02:32:01.979Z,98188.38
2023-12-28T02:34:38.540Z,98196.80
2023-12-28T02:37:14.467Z,98186.62
2023-12-28T02:39:50.821Z,98195.75
2023-12-28T02:42:24.893Z,98196.50
2023-12-28T02:44:58.590Z,98203.23
2023-12-28T02:47:33.215Z,98198.91
2023-12-28T02:50:08.416Z,98195.55
2023-12-28T02:52:42.026Z,98199.75
2023-12-28T02:55:15.841Z,98196.36
2023-12-28T02:57:49.860Z,98197.30
2023-12-28T03:00:24.185Z,98196.30
2023-12-28T03:02:59.399Z,98197.11
2023-12-28T03:05:34.135Z,98211.59
2023-12-28T03:08:08.497Z,98203.06
2023-12-28T03:10:42.016Z,98207.34
2023-12-28T03:13:15.469Z,98206.53
2023-12-28T03:15:48.966Z,98204.87
2023-12-28T03:18:22.720Z,98204.98
2023-12-28T03:20:56.505Z,98204.98
2023-12-28T03:23:30.119Z,98216.83
2023-12-28T03:26:05.597Z,98218.47
2023-12-28T03:28:42.648Z,98216.61
2023-12-28T03:31:16.732Z,98219.97
2023-12-28T03:33:50.463Z,98208.31
2023-12-28T03:36:24.765Z,98224.94
2023-12-28T03:38:59.558Z,98227.39
2023-12-28T03:41:33.161Z,98226.52
2023-12-28T03:44:06.908Z,98229.94
2023-12-28T03:46:40.860Z,98229.89
2023-12-28T03:49:14.537Z,98240.12
2023-12-28T03:51:48.252Z,98235.86
2023-12-28T03:54:22.483Z,98234.95
2023-12-28T03:56:55.842Z,98243.53
2023-12-28T03:59:29.727Z,98229.83
2023-12-28T04:02:03.619Z,98239.31
2023-12-28T04:04:37.273Z,98237.56
2023-12-28T04:07:11.448Z,98235.86
2023-12-28T04:09:45.005Z,98240.17
2023-12-28T04:12:18.738Z,98234.31
2023-12-28T04:14:52.273Z,98243.80
2023-12-28T04:17:25.880Z,98251.47
2023-12-28T04:19:59.500Z,98247.30
2023-12-28T04:22:35.406Z,98247.30
2023-12-28T04:25:09.950Z,98248.97
2023-12-28T04:27:43.995Z,98247.21
2023-12-28T04:30:18.421Z,98257.39
2023-12-28T04:32:52.345Z,98256.53
2023-12-28T04:35:25.911Z,98261.50
2023-12-28T04:37:59.522Z,98253.66
2023-12-28T04:40:34.781Z,98255.00
2023-12-28T04:43:08.797Z,98270.17
2023-12-28T04:45:42.384Z,98267.50
2023-12-28T04:48:16.348Z,98276.09
2023-12-28T04:50:50.430Z,98278.70
2023-12-28T04:53:24.054Z,98271.03
2023-12-28T04:55:59.186Z,98276.14
2023-12-28T04:58:32.794Z,98276.14
2023-12-28T05:01:07.155Z,98275.08
2023-12-28T05:03:40.834Z,98273.20
2023-12-28T05:06:14.390Z,98292.73
2023-12-28T05:08:48.045Z,98283.10
2023-12-28T05:11:21.505Z,98288.95
2023-12-28T05:13:55.765Z,98296.51
2023-12-28T05:16:29.402Z,98302.69
2023-12-28T05:19:03.170Z,98307.13
2023-12-28T05:21:37.012Z,98298.77
2023-12-28T05:24:10.735Z,98306.66
2023-12-28T05:26:44.278Z,98292.38
2023-12-28T05:29:17.901Z,98301.03
2023-12-28T05:31:51.525Z,98303.80
2023-12-28T05:34:25.365Z,98303.05
2023-12-28T05:36:58.954Z,98303.11
2023-12-28T05:39:32.705Z,98296.50
2023-12-28T05:42:06.944Z,98310.98
2023-12-28T05:44:40.615Z,98309.30
2023-12-28T05:47:14.301Z,98323.89
2023-12-28T05:49:48.960Z,98321.34
2023-12-28T05:52:22.825Z,98331.72
2023-12-28T05:54:58.048Z,98324.16
2023-12-28T05:57:32.496Z,98329.54
2023-12-28T06:00:07.985Z,98336.52
2023-12-28T06:02:43.408Z,98342.50
2023-12-28T06:05:17.148Z,98348.75
2023-12-28T06:07:50.619Z,98357.38
2023-12-28T06:10:25.351Z,98365.91
2023-12-28T06:12:59.208Z,98366.86
2023-12-28T06:15:34.096Z,98373.80
2023-12-28T06:18:08.458Z,98361.80
2023-12-28T06:20:42.049Z,98368.67
2023-12-28T06:23:15.800Z,98345.27
2023-12-28T06:25:49.506Z,98376.35
2023-12-28T06:28:23.178Z,98388.41
2023-12-28T06:30:58.304Z,98391.97
2023-12-28T06:33:32.868Z,98397.95
2023-12-28T06:36:11.162Z,98397.09
2023-12-28T06:38:44.764Z,98388.08
2023-12-28T06:41:18.393Z,98392.20
2023-12-28T06:43:51.932Z,98403.39
2023-12-28T06:46:25.558Z,98409.70
2023-12-28T06:49:00.855Z,98415.77
2023-12-28T06:51:34.990Z,98422.64
2023-12-28T06:54:08.691Z,98420.25
2023-12-28T06:56:42.397Z,98425.58
2023-12-28T06:59:16.638Z,98416.95
2023-12-28T07:01:50.959Z,98428.94
2023-12-28T07:04:26.776Z,98442.70
2023-12-28T07:07:00.338Z,98433.69
2023-12-28T07:09:33.949Z,98439.02
2023-12-28T07:12:09.184Z,98439.07
2023-12-28T07:14:42.522Z,98443.33
2023-12-28T07:17:17.710Z,98439.82
2023-12-28T07:19:51.500Z,98437.06
2023-12-28T07:22:25.126Z,98437.80
2023-12-28T07:24:58.669Z,98441.20
2023-12-28T07:27:33.911Z,98448.05
2023-12-28T07:30:10.054Z,98449.00
2023-12-28T07:32:43.798Z,98452.42
2023-12-28T07:35:17.847Z,98452.69
2023-12-28T07:37:51.695Z,98457.69
2023-12-28T07:40:25.159Z,98464.48
2023-12-28T07:42:58.879Z,98459.77
2023-12-28T07:45:33.353Z,98471.88
2023-12-28T07:48:09.099Z,98471.08
2023-12-28T07:50:42.755Z,98466.70
2023-12-28T07:53:16.353Z,98476.95
2023-12-28T07:55:50.084Z,98471.94
2023-12-28T07:58:23.612Z,98474.01
2023-12-28T08:00:57.359Z,98482.17
2023-12-28T08:03:30.904Z,98484.29
2023-12-28T08:06:04.672Z,98488.72
2023-12-28T08:08:38.659Z,98497.66
2023-12-28T08:11:13.424Z,98501.73
2023-12-28T08:13:48.005Z,98478.91
2023-12-28T08:16:21.706Z,98500.67
2023-12-28T08:18:55.634Z,98496.30
2023-12-28T08:21:29.334Z,98501.92
2023-12-28T08:24:02.681Z,98504.31
2023-12-28T08:26:36.206Z,98500.80
2023-12-28T08:29:10.160Z,98507.31
2023-12-28T08:31:47.980Z,98510.80
2023-12-28T08:34:18.644Z,98518.38
2023-12-28T08:36:53.602Z,98523.44
2023-12-28T08:39:27.258Z,98525.94
2023-12-28T08:42:01.113Z,98524.19
2023-12-28T08:44:35.099Z,98534.28
2023-12-28T08:47:09.323Z,98528.36
2023-12-28T08:49:43.299Z,98534.38
2023-12-28T08:52:17.089Z,98544.53
2023-12-28T08:54:50.709Z,98534.44
2023-12-28T08:57:35.381Z,98545.43
2023-12-28T09:00:01.459Z,98548.91
2023-12-28T09:02:37.382Z,98546.55
2023-12-28T09:05:12.026Z,98547.63
2023-12-28T09:07:45.681Z,98542.55
2023-12-28T09:10:19.881Z,98534.92
2023-12-28T09:12:53.684Z,98552.42
2023-12-28T09:15:27.423Z,98550.61
2023-12-28T09:18:01.818Z,98550.61
2023-12-28T09:20:36.557Z,98540.30
2023-12-28T09:23:11.184Z,98551.41
2023-12-28T09:25:45.111Z,98547.42
2023-12-28T09:28:18.585Z,98547.42
2023-12-28T09:30:52.332Z,98539.45
2023-12-28T09:33:26.378Z,98551.69
2023-12-28T09:36:01.050Z,98546.70
2023-12-28T09:38:34.768Z,98544.20
2023-12-28T09:41:13.143Z,98556.32
2023-12-28T09:43:54.259Z,98563.31
2023-12-28T09:46:28.660Z,98563.31
2023-12-28T09:49:02.531Z,98560.06
2023-12-28T09:51:36.882Z,98564.80
2023-12-28T09:54:11.398Z,98569.09
2023-12-28T09:56:45.737Z,98570.50
2023-12-28T09:59:19.978Z,98575.42
2023-12-28T10:01:54.124Z,98567.72
2023-12-28T10:04:30.049Z,98564.50
2023-12-28T10:07:03.928Z,98574.11
2023-12-28T10:09:37.743Z,98563.60
2023-12-28T10:12:12.149Z,98566.31
2023-12-28T10:14:46.646Z,98571.30
2023-12-28T10:17:20.416Z,98568.81
2023-12-28T10:19:57.100Z,98579.02
2023-12-28T10:22:31.762Z,98580.79
2023-12-28T10:25:06.767Z,98584.55
2023-12-28T10:27:43.525Z,98575.16
2023-12-28T10:30:17.823Z,98581.42
2023-12-28T10:32:52.059Z,98567.05
2023-12-28T10:35:25.912Z,98578.91
2023-12-28T10:38:03.548Z,98574.69
2023-12-28T10:40:38.036Z,98584.69
2023-12-28T10:43:13.807Z,98569.25
2023-12-28T10:45:51.391Z,98566.45
2023-12-28T10:48:29.142Z,98571.52
2023-12-28T10:51:02.718Z,98563.08
2023-12-28T10:53:40.277Z,98569.06
2023-12-28T10:56:19.595Z,98564.63
2023-12-28T10:58:55.501Z,98565.55
2023-12-28T11:01:32.833Z,98573.81
2023-12-28T11:04:10.854Z,98580.01
2023-12-28T11:06:47.640Z,98572.50
2023-12-28T11:09:23.094Z,98580.05
2023-12-28T11:12:01.128Z,98574.20
2023-12-28T11:14:36.724Z,98571.58
2023-12-28T11:17:11.792Z,98578.08
2023-12-28T11:19:47.211Z,98579.05
2023-12-28T11:22:22.078Z,98570.99
2023-12-28T11:24:56.892Z,98573.45
2023-12-28T11:27:38.256Z,98579.33
2023-12-28T11:30:15.536Z,98574.89
2023-12-28T11:32:49.501Z,98580.41
2023-12-28T11:35:23.219Z,98586.82
2023-12-28T11:37:58.274Z,98583.34
2023-12-28T11:40:33.172Z,98595.83
2023-12-28T11:43:08.800Z,98590.38
2023-12-28T11:45:44.075Z,98584.04
2023-12-28T11:48:26.693Z,98587.70
2023-12-28T11:51:01.388Z,98589.66
2023-12-28T11:53:36.799Z,98595.80
2023-12-28T11:56:12.315Z,98602.72
2023-12-28T11:58:47.334Z,98598.06
2023-12-28T12:01:21.203Z,98601.45
2023-12-28T12:03:55.154Z,98606.09
2023-12-28T12:06:28.917Z,98603.46
2023-12-28T12:09:02.389Z,98599.14
2023-12-28T12:11:36.132Z,98600.48
2023-12-28T12:14:13.487Z,98605.03
2023-12-28T12:16:48.539Z,98614.36
2023-12-28T12:19:22.469Z,98617.22
2023-12-28T12:21:56.866Z,98623.66
2023-12-28T12:24:30.319Z,98612.95
2023-12-28T12:27:05.687Z,98617.56
2023-12-28T12:29:39.195Z,98636.84
2023-12-28T12:32:13.466Z,98635.73
2023-12-28T12:34:47.147Z,98644.20
2023-12-28T12:37:20.958Z,98643.27
2023-12-28T12:39:55.522Z,98641.33
2023-12-28T12:42:29.206Z,98648.06
2023-12-28T12:45:03.488Z,98660.25
2023-12-28T12:47:37.770Z,98659.70
2023-12-28T12:50:13.634Z,98665.92
2023-12-28T12:52:47.602Z,98661.81
2023-12-28T12:55:22.065Z,98669.72
2023-12-28T12:57:57.443Z,98660.29
2023-12-28T13:00:31.391Z,98664.61
2023-12-28T13:03:05.096Z,98664.30
2023-12-28T13:05:39.368Z,98666.86
2023-12-28T13:08:12.807Z,98662.53
2023-12-28T13:10:46.505Z,98681.73
2023-12-28T13:13:20.326Z,98671.27
2023-12-28T13:15:54.201Z,98678.41
2023-12-28T13:18:27.890Z,98678.09
2023-12-28T13:21:01.610Z,98691.36
2023-12-28T13:23:35.135Z,98678.34
2023-12-28T13:26:08.936Z,98684.34
2023-12-28T13:28:43.867Z,98673.30
2023-12-28T13:31:20.005Z,98669.31
2023-12-28T13:33:54.028Z,98678.09
2023-12-28T13:36:29.854Z,98677.61
2023-12-28T13:39:03.924Z,98686.22
2023-12-28T13:41:37.625Z,98686.32
2023-12-28T13:44:13.445Z,98659.87
2023-12-28T13:46:47.365Z,98676.96
2023-12-28T13:49:21.199Z,98679.45
2023-12-28T13:51:54.875Z,98683.11
2023-12-28T13:54:29.522Z,98676.23
2023-12-28T13:57:02.897Z,98683.98
2023-12-28T13:59:36.350Z,98679.66
2023-12-28T14:02:09.788Z,98689.02
2023-12-28T14:04:43.419Z,98682.22
2023-12-28T14:07:17.702Z,98684.95
2023-12-28T14:09:51.294Z,98680.94
2023-12-28T14:12:25.581Z,98673.41
2023-12-28T14:14:59.831Z,98683.81
2023-12-28T14:17:35.258Z,98679.32
2023-12-28T14:20:12.917Z,98686.84
2023-12-28T14:22:48.366Z,98690.44
2023-12-28T14:25:23.879Z,98685.26
2023-12-28T14:27:59.031Z,98667.05
2023-12-28T14:30:34.285Z,98689.81
2023-12-28T14:33:09.862Z,98685.59
2023-12-28T14:35:47.423Z,98700.03
2023-12-28T14:38:20.053Z,98704.10
2023-12-28T14:40:53.789Z,98691.98
2023-12-28T14:43:27.605Z,98680.17
2023-12-28T14:46:01.583Z,98674.16
2023-12-28T14:48:35.742Z,98664.84
2023-12-28T14:51:09.335Z,98660.66
2023-12-28T14:53:43.018Z,98656.38
2023-12-28T14:56:16.853Z,98664.11
2023-12-28T14:58:50.838Z,98659.87
2023-12-28T15:01:26.795Z,98653.09
2023-12-28T15:04:03.468Z,98650.44
2023-12-28T15:06:37.291Z,98634.48
2023-12-28T15:09:11.307Z,98641.12
2023-12-28T15:11:49.066Z,98642.77
2023-12-28T15:14:23.639Z,98631.69
2023-12-28T15:16:58.905Z,98629.20
2023-12-28T15:19:34.059Z,98643.42
2023-12-28T15:22:09.337Z,98637.21
2023-12-28T15:24:44.873Z,98643.87
2023-12-28T15:27:18.749Z,98626.84
2023-12-28T15:29:52.631Z,98619.19
2023-12-28T15:32:26.534Z,98614.22
2023-12-28T15:35:02.374Z,98611.77
2023-12-28T15:37:35.574Z,98600.72
2023-12-28T15:40:11.584Z,98605.10
2023-12-28T15:42:47.022Z,98602.62
2023-12-28T15:45:20.844Z,98601.09
2023-12-28T15:47:54.872Z,98608.94
2023-12-28T15:50:28.650Z,98600.30
2023-12-28T15:53:02.329Z,98611.97
2023-12-28T15:55:35.894Z,98616.29
2023-12-28T15:58:09.733Z,98616.12
2023-12-28T16:00:44.845Z,98620.30
2023-12-28T16:03:18.448Z,98621.23
2023-12-28T16:05:52.431Z,98619.43
2023-12-28T16:08:25.900Z,98622.05
2023-12-28T16:11:01.069Z,98637.38
2023-12-28T16:13:38.403Z,98625.41
2023-12-28T16:16:14.344Z,98626.27
2023-12-28T16:18:54.581Z,98619.25
2023-12-28T16:21:31.535Z,98626.70
2023-12-28T16:24:05.359Z,98615.59
2023-12-28T16:26:43.465Z,98616.63
2023-12-28T16:29:17.169Z,98611.66
2023-12-28T16:31:51.618Z,98610.08
2023-12-28T16:34:25.427Z,98602.99
2023-12-28T16:36:59.312Z,98615.66
2023-12-28T16:39:33.210Z,98608.72
2023-12-28T16:42:07.986Z,98606.27
2023-12-28T16:44:44.874Z,98617.36
2023-12-28T16:47:18.643Z,98598.50
2023-12-28T16:49:52.430Z,98612.97
2023-12-28T16:52:26.197Z,98604.34
2023-12-28T16:55:00.093Z,98601.78
2023-12-28T16:57:35.336Z,98616.17
2023-12-28T17:00:12.795Z,98610.17
2023-12-28T17:02:46.591Z,98599.09
2023-12-28T17:05:23.860Z,98610.99
2023-12-28T17:07:58.514Z,98606.75
2023-12-28T17:10:35.245Z,98600.98
2023-12-28T17:13:11.790Z,98612.89
2023-12-28T17:15:46.937Z,98607.61
2023-12-28T17:18:24.398Z,98609.23
2023-12-28T17:20:58.618Z,98631.33
2023-12-28T17:23:38.845Z,98619.45
2023-12-28T17:26:15.578Z,98625.28
2023-12-28T17:28:52.399Z,98627.66
2023-12-28T17:31:29.084Z,98626.22
2023-12-28T17:34:04.248Z,98614.41
2023-12-28T17:36:39.468Z,98620.48
2023-12-28T17:39:14.586Z,98619.66
2023-12-28T17:41:50.182Z,98598.50
2023-12-28T17:44:26.853Z,98594.70
2023-12-28T17:47:02.860Z,98591.28
2023-12-28T17:49:39.374Z,98595.28
2023-12-28T17:52:15.627Z,98587.69
2023-12-28T17:54:49.305Z,98592.80
2023-12-28T17:57:23.159Z,98580.03
2023-12-28T17:59:57.159Z,98583.31
2023-12-28T18:02:30.738Z,98583.31
2023-12-28T18:05:05.016Z,98577.61
2023-12-28T18:07:39.314Z,98570.85
2023-12-28T18:10:13.453Z,98569.16
2023-12-28T18:12:47.392Z,98567.57
2023-12-28T18:15:21.224Z,98562.08
2023-12-28T18:17:55.069Z,98572.37
2023-12-28T18:20:28.790Z,98564.77
2023-12-28T18:23:02.520Z,98559.08
2023-12-28T18:25:49.390Z,98536.02
2023-12-28T18:28:23.781Z,98553.70
2023-12-28T18:30:57.800Z,98556.15
2023-12-28T18:33:32.450Z,98547.69
2023-12-28T18:36:09.985Z,98544.34
2023-12-28T18:38:43.491Z,98542.59
2023-12-28T18:41:17.258Z,98528.23
2023-12-28T18:43:51.140Z,98528.16
2023-12-28T18:46:26.064Z,98534.92
2023-12-28T18:49:01.352Z,98495.58
2023-12-28T18:51:34.982Z,98527.84
2023-12-28T18:54:08.506Z,98516.91
2023-12-28T18:56:42.090Z,98515.15
2023-12-28T18:59:15.803Z,98523.77
2023-12-28T19:01:50.845Z,98513.39
2023-12-28T19:04:25.044Z,98505.73
2023-12-28T19:06:59.255Z,98518.50
2023-12-28T19:09:32.848Z,98513.25
2023-12-28T19:12:08.781Z,98508.00
2023-12-28T19:14:44.817Z,98514.05
2023-12-28T19:17:18.316Z,98510.77
2023-12-28T19:19:53.133Z,98506.52
2023-12-28T19:22:27.428Z,98503.97
2023-12-28T19:25:01.336Z,98501.20
2023-12-28T19:27:36.344Z,98493.55
2023-12-28T19:30:13.431Z,98485.95
2023-12-28T19:32:47.929Z,98487.58
2023-12-28T19:35:21.755Z,98474.95
2023-12-28T19:37:56.485Z,98462.18
2023-12-28T19:40:30.149Z,98480.41
2023-12-28T19:43:04.123Z,98482.50
2023-12-28T19:45:37.730Z,98476.61
2023-12-28T19:48:12.161Z,98477.41
2023-12-28T19:50:46.244Z,98467.50
2023-12-28T19:53:20.121Z,98466.67
2023-12-28T19:55:54.060Z,98466.67
2023-12-28T19:58:27.670Z,98470.98
2023-12-28T20:01:01.385Z,98470.26
2023-12-28T20:03:35.589Z,98464.29
2023-12-28T20:06:11.506Z,98467.56
2023-12-28T20:08:47.227Z,98459.67
2023-12-28T20:11:21.966Z,98464.05
2023-12-28T20:13:55.866Z,98463.98
2023-12-28T20:16:30.365Z,98465.57
2023-12-28T20:19:04.770Z,98469.88
2023-12-28T20:21:40.224Z,98469.88
2023-12-28T20:24:14.291Z,98458.08
2023-12-28T20:26:48.336Z,98470.91
2023-12-28T20:29:22.737Z,98474.27
2023-12-28T20:31:57.192Z,98465.02
2023-12-28T20:34:31.051Z,98471.78
2023-12-28T20:37:04.952Z,98470.98
2023-12-28T20:39:38.636Z,98465.02
2023-12-28T20:42:13.082Z,98458.08
2023-12-28T20:44:46.688Z,98454.73
2023-12-28T20:47:21.626Z,98449.62
2023-12-28T20:49:56.394Z,98441.31
2023-12-28T20:52:30.030Z,98431.96
2023-12-28T20:55:04.039Z,98422.64
2023-12-28T20:57:37.891Z,98412.56
2023-12-28T21:00:15.236Z,98410.97
2023-12-28T21:02:48.881Z,98407.59
2023-12-28T21:05:22.886Z,98407.45
2023-12-28T21:07:56.670Z,98409.22
2023-12-28T21:10:30.492Z,98407.53
2023-12-28T21:13:05.470Z,98408.32
2023-12-28T21:15:39.217Z,98393.89
2023-12-28T21:18:19.669Z,98405.77
2023-12-28T21:21:02.369Z,98402.28
2023-12-28T21:23:24.665Z,98387.77
2023-12-28T21:25:58.214Z,98393.59
2023-12-28T21:28:31.809Z,98392.63
2023-12-28T21:31:06.241Z,98397.67
2023-12-28T21:33:41.786Z,98392.63
2023-12-28T21:36:15.400Z,98393.73
2023-12-28T21:38:49.019Z,98398.04
2023-12-28T21:41:22.668Z,98396.22
2023-12-28T21:43:56.232Z,98380.83
2023-12-28T21:46:30.130Z,98373.17
2023-12-28T21:49:05.339Z,98376.69
2023-12-28T21:51:40.491Z,98379.23
2023-12-28T21:54:14.067Z,98381.62
2023-12-28T21:56:47.754Z,98371.41
2023-12-28T21:59:22.918Z,98376.52
2023-12-28T22:01:56.922Z,98377.42
2023-12-28T22:04:30.744Z,98368.92
2023-12-28T22:07:04.292Z,98375.59
2023-12-28T22:09:38.227Z,98376.32
2023-12-28T22:12:12.093Z,98362.66
2023-12-28T22:14:45.436Z,98363.45
2023-12-28T22:17:19.316Z,98359.18
2023-12-28T22:19:53.332Z,98364.42
2023-12-28T22:22:27.005Z,98351.72
2023-12-28T22:25:00.519Z,98344.73
2023-12-28T22:27:34.564Z,98345.52
2023-12-28T22:30:10.328Z,98338.76
2023-12-28T22:32:44.074Z,98337.30
2023-12-28T22:35:18.315Z,98334.81
2023-12-28T22:37:51.976Z,98336.56
2023-12-28T22:40:25.919Z,98337.56
2023-12-28T22:42:59.880Z,98332.45
2023-12-28T22:45:33.756Z,98325.75
2023-12-28T22:48:08.924Z,98325.69
2023-12-28T22:50:42.363Z,98318.89
2023-12-28T22:53:15.846Z,98319.05
2023-12-28T22:55:49.468Z,98326.91
2023-12-28T22:58:22.851Z,98325.38
2023-12-28T23:00:56.936Z,98325.56
2023-12-28T23:03:30.797Z,98321.64
2023-12-28T23:06:04.741Z,98317.39
2023-12-28T23:08:38.300Z,98332.59
2023-12-28T23:11:11.785Z,98321.36
2023-12-28T23:13:46.278Z,98305.88
2023-12-28T23:16:19.928Z,98301.50
2023-12-28T23:18:53.896Z,98302.45
2023-12-28T23:21:27.274Z,98294.86
2023-12-28T23:24:00.620Z,98290.64
2023-12-28T23:26:34.334Z,98288.16
2023-12-28T23:29:07.983Z,98276.98
2023-12-28T23:31:41.648Z,98266.70
2023-12-28T23:34:22.484Z,98265.84
2023-12-28T23:36:50.730Z,98254.95
2023-12-28T23:39:24.209Z,98257.57
2023-12-28T23:41:58.033Z,98248.37
2023-12-28T23:44:31.691Z,98246.74
2023-12-28T23:47:05.479Z,98233.11
2023-12-28T23:49:39.161Z,98238.73
2023-12-28T23:52:12.679Z,98229.54
2023-12-28T23:54:46.373Z,98222.16
2023-12-28T23:57:19.923Z,98223.84
2023-12-28T23:59:53.920Z,98212.73
